Time;durP1;ratioP1;P1;durP2;ratioP2;P2;SDS_P1;SDS_P2;PMS_P1;PMS_P2;Temp;Humidity;BMP_temperature;BMP_pressure;BME280_temperature;BME280_humidity;BME280_pressure;Samples;Min_cycle;Max_cycle;Signal;HPM_P1;HPM_P2
2023/10/10 00:01:17;;;;;;;78.05;41.10;;;15.10;99.90;;;;;;5010778;28;20385;-75
2023/10/10 00:03:45;;;;;;;75.32;40.80;;;15.00;99.90;;;;;;5010863;28;20492;-75
2023/10/10 00:06:13;;;;;;;62.35;37.40;;;14.90;99.90;;;;;;5010857;28;20404;-75
2023/10/10 00:08:43;;;;;;;71.13;39.30;;;14.90;99.90;;;;;;5010648;28;20523;-75
2023/10/10 00:11:16;;;;;;;66.10;40.28;;;14.90;99.90;;;;;;4992745;28;20884;-75
2023/10/10 00:13:42;;;;;;;73.82;39.28;;;14.80;99.90;;;;;;5010700;28;20458;-76
2023/10/10 00:16:19;;;;;;;72.20;40.63;;;14.70;99.90;;;;;;4993119;28;20872;-75
2023/10/10 00:18:46;;;;;;;68.90;38.50;;;14.80;99.90;;;;;;5010762;28;20392;-76
2023/10/10 00:21:22;;;;;;;70.95;40.47;;;14.60;99.90;;;;;;5011774;28;20461;-75
2023/10/10 00:23:49;;;;;;;71.93;39.83;;;14.60;99.90;;;;;;5011717;28;20401;-75
2023/10/10 00:26:15;;;;;;;74.90;40.28;;;14.50;99.90;;;;;;5011443;28;20384;-76
2023/10/10 00:28:44;;;;;;;78.05;42.65;;;14.50;99.90;;;;;;5017216;28;20389;-75
2023/10/10 00:31:12;;;;;;;77.60;41.60;;;14.40;99.90;;;;;;5023366;28;20428;-75
2023/10/10 00:33:38;;;;;;;73.75;41.17;;;14.40;99.90;;;;;;5006914;28;20393;-76
2023/10/10 00:36:06;;;;;;;76.88;40.17;;;14.40;99.90;;;;;;5008028;28;20424;-74
2023/10/10 00:38:32;;;;;;;79.78;41.80;;;14.40;99.90;;;;;;5006576;28;20400;-75
2023/10/10 00:40:57;;;;;;;77.77;40.73;;;14.30;99.90;;;;;;5021346;28;20392;-77
2023/10/10 00:43:24;;;;;;;81.47;44.00;;;14.40;99.90;;;;;;5019002;28;20384;-76
2023/10/10 00:45:57;;;;;;;78.88;42.67;;;14.30;99.90;;;;;;5022052;28;20416;-75
2023/10/10 00:48:29;;;;;;;90.25;41.55;;;14.30;99.90;;;;;;5003299;28;20441;-75
2023/10/10 00:50:56;;;;;;;68.57;40.65;;;14.30;99.90;;;;;;5022185;28;20408;-75
2023/10/10 00:53:22;;;;;;;77.03;42.90;;;14.30;99.90;;;;;;5019677;28;20431;-77
2023/10/10 00:55:56;;;;;;;80.68;43.53;;;14.30;99.90;;;;;;5022222;28;20894;-74
2023/10/10 00:58:35;;;;;;;81.80;44.47;;;14.30;99.90;;;;;;5025635;28;20388;-75
2023/10/10 01:01:09;;;;;;;76.37;44.40;;;14.30;99.90;;;;;;5010484;28;20401;-74
2023/10/10 01:03:39;;;;;;;85.70;44.47;;;14.30;99.90;;;;;;5026600;28;20456;-76
2023/10/10 01:06:20;;;;;;;81.47;45.95;;;14.30;99.90;;;;;;5024759;28;20389;-75
2023/10/10 01:09:21;;;;;;;84.18;44.70;;;14.30;99.90;;;;;;5026820;28;20396;-76
2023/10/10 01:11:48;;;;;;;81.80;45.22;;;14.40;99.90;;;;;;5021352;28;20404;-76
2023/10/10 01:14:18;;;;;;;79.60;46.95;;;14.40;99.90;;;;;;5021960;28;20743;-75
2023/10/10 01:16:54;;;;;;;86.90;45.97;;;14.40;99.90;;;;;;5026656;28;20725;-75
2023/10/10 01:19:21;;;;;;;82.28;46.60;;;14.30;99.90;;;;;;5024446;28;20492;-76
2023/10/10 01:21:57;;;;;;;86.63;46.78;;;14.30;99.90;;;;;;5024104;28;20381;-74
2023/10/10 01:24:26;;;;;;;93.97;45.58;;;14.30;99.90;;;;;;5025597;28;20392;-75
2023/10/10 01:26:53;;;;;;;75.82;44.72;;;14.30;99.90;;;;;;5022210;28;20381;-74
2023/10/10 01:31:54;;;;;;;87.70;44.92;;;14.30;99.90;;;;;;5020823;28;20475;-74
2023/10/10 01:34:43;;;;;;;88.17;45.33;;;14.30;99.90;;;;;;5016316;28;20852;-74
2023/10/10 01:37:20;;;;;;;91.45;45.13;;;14.20;99.90;;;;;;5017549;28;20436;-75
2023/10/10 01:40:15;;;;;;;85.13;45.33;;;14.20;99.90;;;;;;5019182;28;20536;-75
2023/10/10 01:42:46;;;;;;;81.00;44.30;;;14.20;99.90;;;;;;5013576;28;20776;-75
2023/10/10 01:45:18;;;;;;;78.97;43.80;;;14.20;99.90;;;;;;5013034;28;20798;-75
2023/10/10 01:47:56;;;;;;;86.60;45.25;;;14.20;99.90;;;;;;5012908;28;20748;-75
2023/10/10 01:50:26;;;;;;;82.97;44.63;;;14.20;99.90;;;;;;5012700;28;20427;-75
2023/10/10 01:52:56;;;;;;;82.63;44.65;;;14.10;99.90;;;;;;5012671;28;20414;-74
2023/10/10 01:55:24;;;;;;;87.07;45.08;;;14.10;99.90;;;;;;5012801;28;20381;-74
2023/10/10 01:58:01;;;;;;;84.30;43.63;;;14.10;99.90;;;;;;5013174;28;20479;-74
2023/10/10 02:00:27;;;;;;;88.45;45.92;;;14.10;99.90;;;;;;5012616;28;20385;-73
2023/10/10 02:02:55;;;;;;;89.75;45.92;;;14.10;99.90;;;;;;4994348;28;20393;-73
2023/10/10 02:07:57;;;;;;;78.30;44.97;;;14.00;99.90;;;;;;5013783;28;20385;-75
2023/10/10 02:10:26;;;;;;;90.50;46.10;;;14.10;99.90;;;;;;5013926;28;20404;-75
2023/10/10 02:12:52;;;;;;;84.45;45.42;;;14.10;99.90;;;;;;5014554;28;20393;-73
2023/10/10 02:15:26;;;;;;;87.80;47.13;;;14.10;99.90;;;;;;5014436;28;20388;-73
2023/10/10 02:17:54;;;;;;;88.07;46.40;;;14.00;99.90;;;;;;5013483;28;20438;-75
2023/10/10 02:22:51;;;;;;;88.40;44.75;;;14.00;99.90;;;;;;5012155;28;20412;-75
2023/10/10 02:27:56;;;;;;;85.38;46.15;;;14.00;99.90;;;;;;5012345;28;20377;-75
2023/10/10 02:30:35;;;;;;;92.50;48.28;;;13.90;99.90;;;;;;5012159;28;20423;-74
2023/10/10 02:33:16;;;;;;;85.85;47.63;;;13.90;99.90;;;;;;5011940;28;20381;-75
2023/10/10 02:35:55;;;;;;;86.30;45.72;;;14.00;99.90;;;;;;5012534;28;20377;-74
2023/10/10 02:38:39;;;;;;;85.28;45.08;;;14.00;99.90;;;;;;5012310;28;20412;-75
2023/10/10 02:41:24;;;;;;;81.95;44.30;;;14.00;99.90;;;;;;4994481;28;20907;-75
2023/10/10 02:43:56;;;;;;;80.18;43.35;;;14.00;99.90;;;;;;5012132;28;20420;-74
2023/10/10 02:46:35;;;;;;;75.43;41.10;;;14.00;99.90;;;;;;5012273;28;20812;-75
2023/10/10 02:51:55;;;;;;;71.83;40.73;;;14.00;99.90;;;;;;5012042;28;20735;-74
2023/10/10 02:57:27;;;;;;;70.00;39.40;;;13.90;99.90;;;;;;5012385;28;20404;-75
2023/10/10 02:59:50;;;;;;;75.03;40.90;;;13.90;99.90;;;;;;5011701;28;20407;-75
2023/10/10 03:02:19;;;;;;;70.82;39.08;;;13.90;99.90;;;;;;5012392;28;20870;-75
2023/10/10 03:04:52;;;;;;;71.85;38.78;;;13.80;99.90;;;;;;5012347;28;20389;-74
2023/10/10 03:07:27;;;;;;;63.78;38.70;;;13.80;99.90;;;;;;5011963;28;20884;-74
2023/10/10 03:12:36;;;;;;;74.78;39.45;;;13.70;99.90;;;;;;5011829;28;20412;-75
2023/10/10 03:15:27;;;;;;;71.85;39.50;;;13.70;99.90;;;;;;5012480;28;20389;-76
2023/10/10 03:26:04;;;;;;;67.32;39.00;;;13.70;99.90;;;;;;5011939;28;20399;-76
2023/10/10 03:28:33;;;;;;;62.38;37.03;;;13.70;99.90;;;;;;5013021;28;20389;-75
2023/10/10 05:23:29;;;;;;;66.35;37.10;;;13.60;99.90;;;;;;5012901;28;20697;-73
2023/10/10 05:25:15;;;;;;;42.38;24.80;;;13.50;99.90;;;;;;5013194;28;20484;-73
2023/10/10 05:27:43;;;;;;;52.88;25.92;;;13.50;99.90;;;;;;5011267;28;20393;-73
2023/10/10 05:30:25;;;;;;;39.85;25.02;;;13.40;99.90;;;;;;5012976;28;20498;-73
2023/10/10 05:33:00;;;;;;;48.00;24.17;;;13.40;99.90;;;;;;5013384;28;20471;-74
2023/10/10 05:35:28;;;;;;;40.92;24.05;;;13.40;99.90;;;;;;5000021;28;20395;-73
2023/10/10 05:37:54;;;;;;;51.47;25.58;;;13.40;99.90;;;;;;5011361;28;20838;-72
2023/10/10 05:40:20;;;;;;;44.67;24.90;;;13.40;99.90;;;;;;5008009;28;20961;-74
2023/10/10 05:42:46;;;;;;;40.30;23.48;;;13.40;99.90;;;;;;4992542;28;20498;-73
2023/10/10 05:45:13;;;;;;;44.95;23.70;;;13.40;99.90;;;;;;4992379;28;20387;-73
2023/10/10 05:47:39;;;;;;;40.40;23.50;;;13.40;99.90;;;;;;4992808;28;20387;-75
2023/10/10 05:50:10;;;;;;;41.70;23.88;;;13.40;99.90;;;;;;4992809;28;20506;-74
2023/10/10 05:52:38;;;;;;;40.07;22.87;;;13.40;99.90;;;;;;4992081;28;20481;-73
2023/10/10 05:55:05;;;;;;;46.13;22.90;;;13.40;99.90;;;;;;4992342;28;20394;-73
2023/10/10 05:57:33;;;;;;;40.47;23.50;;;13.50;99.90;;;;;;4992522;28;20468;-72
2023/10/10 05:59:59;;;;;;;40.05;23.73;;;13.40;99.90;;;;;;5011142;28;20409;-72
2023/10/10 06:02:27;;;;;;;43.90;22.80;;;13.50;99.90;;;;;;5011283;28;20396;-73
2023/10/10 06:04:53;;;;;;;44.90;23.65;;;13.50;99.90;;;;;;5013268;28;20405;-74
2023/10/10 06:07:20;;;;;;;42.25;24.25;;;13.50;99.90;;;;;;4996396;28;20778;-75
2023/10/10 06:09:48;;;;;;;43.70;24.95;;;13.60;99.90;;;;;;4999516;28;20408;-75
2023/10/10 06:12:15;;;;;;;45.40;23.40;;;13.60;99.90;;;;;;5009902;28;20405;-73
2023/10/10 06:14:42;;;;;;;37.92;23.33;;;13.60;99.90;;;;;;5010908;28;20485;-74
2023/10/10 06:17:08;;;;;;;40.95;23.42;;;13.70;99.20;;;;;;5010911;28;20975;-73
2023/10/10 06:19:34;;;;;;;42.15;24.52;;;13.70;97.40;;;;;;5011531;28;20393;-74
2023/10/10 06:22:02;;;;;;;46.10;24.50;;;13.80;96.30;;;;;;4993742;28;20393;-74
2023/10/10 06:24:28;;;;;;;67.95;35.40;;;13.80;96.30;;;;;;5011297;28;20807;-73
2023/10/10 06:27:00;;;;;;;73.03;39.65;;;13.90;95.70;;;;;;5011218;28;20475;-74
2023/10/10 06:29:34;;;;;;;76.90;43.85;;;13.90;95.90;;;;;;5009797;28;20977;-73
2023/10/10 06:32:00;;;;;;;92.93;53.83;;;14.00;93.90;;;;;;4991821;28;20404;-73
2023/10/10 06:34:34;;;;;;;43.80;24.83;;;14.10;92.60;;;;;;4992537;28;21047;-73
2023/10/10 06:37:07;;;;;;;45.00;24.95;;;14.10;89.90;;;;;;4993032;28;20414;-73
2023/10/10 06:39:53;;;;;;;47.67;25.38;;;14.20;90.20;;;;;;4993951;28;20398;-73
2023/10/10 06:42:27;;;;;;;42.75;24.63;;;14.20;88.30;;;;;;4993006;28;20443;-73
2023/10/10 06:44:55;;;;;;;48.97;24.20;;;14.30;86.00;;;;;;5008725;28;20464;-73
2023/10/10 06:47:21;;;;;;;46.53;25.70;;;14.40;84.50;;;;;;4990550;28;20404;-73
2023/10/10 06:49:56;;;;;;;41.63;24.35;;;14.50;82.70;;;;;;5010853;28;20930;-73
2023/10/10 06:52:23;;;;;;;39.63;22.85;;;14.50;82.00;;;;;;5009522;28;20398;-73
2023/10/10 06:54:55;;;;;;;42.50;23.55;;;14.50;79.90;;;;;;5010576;28;20399;-73
2023/10/10 06:57:35;;;;;;;43.33;24.60;;;14.50;81.30;;;;;;4993387;28;20390;-73
2023/10/10 07:00:07;;;;;;;38.63;22.85;;;14.50;81.20;;;;;;4994976;28;20417;-73
2023/10/10 07:02:39;;;;;;;41.03;23.50;;;14.60;81.10;;;;;;4994771;28;20526;-73
2023/10/10 07:05:05;;;;;;;39.72;22.95;;;14.70;78.60;;;;;;4995922;28;20905;-73
2023/10/10 07:07:31;;;;;;;45.42;24.95;;;14.80;77.40;;;;;;4995738;28;20494;-73
2023/10/10 07:09:59;;;;;;;45.97;23.17;;;14.80;76.50;;;;;;4991314;28;20573;-73
2023/10/10 07:12:28;;;;;;;52.20;22.98;;;14.90;75.30;;;;;;4998501;28;20782;-74
2023/10/10 07:14:54;;;;;;;39.58;22.70;;;14.90;74.90;;;;;;5007023;28;20756;-74
2023/10/10 07:17:26;;;;;;;38.70;22.00;;;14.90;74.40;;;;;;5009912;28;20400;-73
2023/10/10 07:22:28;;;;;;;37.45;21.25;;;15.10;71.30;;;;;;5009591;28;20412;-73
2023/10/10 07:24:55;;;;;;;44.83;22.00;;;15.10;71.30;;;;;;5010957;28;20384;-72
2023/10/10 07:27:30;;;;;;;40.22;22.50;;;15.20;70.00;;;;;;5008144;28;20400;-73
2023/10/10 07:29:58;;;;;;;40.17;22.60;;;15.20;69.90;;;;;;5010652;28;20689;-74
2023/10/10 07:32:30;;;;;;;34.38;20.77;;;15.20;69.90;;;;;;5009897;28;20421;-73
2023/10/10 07:34:56;;;;;;;38.88;20.50;;;15.20;70.60;;;;;;4998908;28;20469;-73
2023/10/10 07:37:28;;;;;;;37.92;21.67;;;15.20;70.90;;;;;;5010439;28;20464;-74
2023/10/10 07:42:27;;;;;;;42.85;23.23;;;15.20;72.40;;;;;;5007815;28;20419;-72
2023/10/10 07:45:28;;;;;;;34.53;21.95;;;15.30;72.60;;;;;;5009582;28;20453;-74
2023/10/10 07:50:27;;;;;;;38.08;20.42;;;15.50;70.30;;;;;;4992570;28;20426;-74
2023/10/10 07:52:53;;;;;;;39.92;20.85;;;15.60;69.80;;;;;;4973576;28;20413;-74
2023/10/10 07:55:19;;;;;;;35.03;20.97;;;15.70;68.70;;;;;;5002679;28;20759;-75
2023/10/10 07:57:59;;;;;;;38.55;20.25;;;15.80;66.40;;;;;;4993775;28;20472;-74
2023/10/10 08:00:39;;;;;;;36.35;19.75;;;15.90;67.30;;;;;;5006884;28;20404;-74
2023/10/10 08:03:06;;;;;;;33.65;19.38;;;16.10;63.90;;;;;;4982693;28;20462;-74
2023/10/10 08:05:33;;;;;;;37.50;19.35;;;16.20;62.10;;;;;;4992996;28;20893;-74
2023/10/10 08:08:05;;;;;;;30.48;18.52;;;16.30;62.30;;;;;;4991719;28;20413;-74
2023/10/10 08:10:38;;;;;;;32.58;17.25;;;16.40;60.50;;;;;;4992092;28;20402;-74
2023/10/10 08:13:12;;;;;;;32.25;18.50;;;16.60;58.50;;;;;;4992128;28;20497;-73
2023/10/10 08:15:51;;;;;;;33.93;19.13;;;16.70;58.50;;;;;;4993846;28;20940;-74
2023/10/10 08:23:30;;;;;;;31.52;16.58;;;16.90;55.00;;;;;;4991647;28;20695;-74
2023/10/10 08:25:56;;;;;;;31.23;17.17;;;17.00;53.80;;;;;;4997833;28;20403;-74
2023/10/10 08:28:23;;;;;;;31.88;16.88;;;17.10;54.10;;;;;;4991618;28;20757;-74
2023/10/10 08:30:50;;;;;;;37.08;16.70;;;17.20;53.50;;;;;;4991588;28;20437;-74
2023/10/10 08:33:15;;;;;;;30.83;16.38;;;17.30;51.60;;;;;;4992168;28;20387;-74
2023/10/10 08:35:42;;;;;;;36.08;15.95;;;17.40;51.30;;;;;;4992873;28;20395;-73
2023/10/10 08:38:08;;;;;;;26.63;16.10;;;17.50;51.30;;;;;;4992266;28;20394;-74
2023/10/10 08:40:35;;;;;;;28.17;16.58;;;17.60;50.70;;;;;;4991743;28;20433;-74
2023/10/10 08:43:03;;;;;;;30.58;15.93;;;17.70;50.50;;;;;;4991124;28;20404;-74
2023/10/10 08:45:39;;;;;;;28.15;16.23;;;17.80;51.20;;;;;;4991128;28;20405;-73
2023/10/10 08:48:12;;;;;;;30.35;15.30;;;17.90;49.50;;;;;;4991321;28;20402;-75
2023/10/10 08:50:41;;;;;;;28.30;15.48;;;18.00;48.60;;;;;;4990933;28;20411;-74
2023/10/10 08:53:14;;;;;;;26.73;14.40;;;18.10;46.80;;;;;;4991069;28;20861;-73
2023/10/10 08:55:41;;;;;;;29.87;15.20;;;18.20;46.50;;;;;;4991458;28;20465;-74
2023/10/10 08:58:07;;;;;;;32.08;14.40;;;18.40;45.20;;;;;;4991166;28;20383;-73
2023/10/10 09:00:34;;;;;;;26.85;13.88;;;18.50;44.30;;;;;;4990824;28;20850;-73
2023/10/10 09:03:00;;;;;;;35.13;15.23;;;18.70;43.10;;;;;;4995311;28;20422;-74
2023/10/10 09:05:29;;;;;;;27.90;13.30;;;18.80;42.90;;;;;;4978842;28;20410;-74
2023/10/10 09:07:55;;;;;;;26.67;14.20;;;19.00;42.50;;;;;;4991360;28;20389;-74
2023/10/10 09:10:28;;;;;;;27.85;13.27;;;19.10;40.50;;;;;;4992011;28;20406;-74
2023/10/10 09:12:58;;;;;;;26.33;13.35;;;19.30;39.60;;;;;;5016602;23;20440;-72
2023/10/10 09:15:25;;;;;;;23.27;12.90;;;19.60;38.70;;;;;;5014909;28;20388;-72
2023/10/10 09:17:55;;;;;;;27.52;13.18;;;19.70;37.90;;;;;;5014588;28;20467;-72
2023/10/10 09:20:30;;;;;;;28.58;13.30;;;19.70;37.70;;;;;;5014517;28;20527;-72
2023/10/10 09:23:04;;;;;;;29.10;12.82;;;19.70;37.60;;;;;;5013773;28;20385;-72
2023/10/10 09:26:19;;;;;;;28.55;13.75;;;19.70;37.50;;;;;;4997958;28;20416;-72
2023/10/10 09:28:19;;;;;;;23.98;12.85;;;19.80;36.90;;;;;;5006606;28;20381;-72
2023/10/10 09:30:59;;;;;;;25.47;12.50;;;19.90;36.60;;;;;;5014486;28;20404;-72
2023/10/10 09:33:29;;;;;;;25.42;13.07;;;19.90;37.00;;;;;;5014979;28;20755;-73
2023/10/10 09:39:26;;;;;;;20.85;11.77;;;20.10;36.60;;;;;;5000176;28;20389;-72
2023/10/10 09:42:06;;;;;;;22.98;11.70;;;20.30;36.00;;;;;;5028202;28;20396;-72
2023/10/10 09:47:43;;;;;;;28.55;12.82;;;20.80;34.90;;;;;;5029463;28;20395;-71
2023/10/10 09:52:53;;;;;;;22.45;10.90;;;20.70;33.70;;;;;;5023631;28;20420;-73
2023/10/10 10:09:37;;;;;;;23.07;10.57;;;20.80;32.70;;;;;;4996329;28;20530;-71
2023/10/10 10:12:41;;;;;;;17.60;10.87;;;20.90;33.00;;;;;;4995629;28;20383;-73
2023/10/10 10:15:28;;;;;;;19.70;10.57;;;21.00;33.20;;;;;;4996817;28;20469;-73
2023/10/10 10:18:11;;;;;;;18.02;9.82;;;21.20;32.90;;;;;;4996091;28;20404;-72
2023/10/10 10:20:48;;;;;;;19.40;9.48;;;21.20;30.80;;;;;;4996020;28;20386;-74
2023/10/10 10:23:27;;;;;;;21.45;10.10;;;21.20;31.00;;;;;;4994696;28;20386;-74
2023/10/10 10:26:12;;;;;;;24.38;9.55;;;21.20;31.40;;;;;;4995010;28;20386;-74
2023/10/10 10:28:41;;;;;;;16.13;9.10;;;21.30;30.70;;;;;;4995816;28;20389;-73
2023/10/10 10:31:28;;;;;;;19.10;9.50;;;21.30;29.90;;;;;;4996326;28;20817;-72
2023/10/10 10:34:31;;;;;;;20.42;9.85;;;21.30;30.00;;;;;;4995357;28;20393;-73
2023/10/10 10:37:19;;;;;;;23.80;8.60;;;21.10;30.60;;;;;;4995747;28;20395;-73
2023/10/10 10:42:38;;;;;;;19.30;9.50;;;21.10;30.80;;;;;;4973984;28;20394;-73
2023/10/10 10:45:36;;;;;;;20.55;9.13;;;21.20;30.60;;;;;;4996415;28;20390;-74
2023/10/10 10:48:20;;;;;;;23.20;10.60;;;21.20;30.80;;;;;;4997857;28;20389;-74
2023/10/10 10:50:46;;;;;;;22.50;10.10;;;21.30;30.90;;;;;;4994781;28;20853;-73
2023/10/10 10:53:30;;;;;;;23.23;8.70;;;21.30;29.40;;;;;;4995058;28;20880;-74
2023/10/10 11:01:28;;;;;;;16.37;9.33;;;21.20;30.60;;;;;;4994988;28;20401;-73
2023/10/10 11:03:55;;;;;;;16.67;9.07;;;21.20;30.80;;;;;;4995230;28;20393;-73
2023/10/10 11:06:24;;;;;;;20.38;9.50;;;21.20;31.20;;;;;;4995193;28;20390;-74
2023/10/10 11:14:03;;;;;;;26.52;9.82;;;21.60;30.70;;;;;;4995592;28;20452;-74
2023/10/10 11:16:44;;;;;;;15.63;9.20;;;21.60;30.30;;;;;;4995199;28;20383;-74
2023/10/10 11:19:12;;;;;;;21.30;8.30;;;21.50;30.40;;;;;;4994976;28;20390;-73
2023/10/10 11:21:48;;;;;;;21.40;9.73;;;21.60;31.10;;;;;;4975768;28;20394;-72
2023/10/10 11:24:15;;;;;;;18.75;8.80;;;21.70;30.10;;;;;;4993179;28;20453;-73
2023/10/10 11:26:43;;;;;;;16.02;8.50;;;21.70;30.90;;;;;;4999056;28;20395;-73
2023/10/10 11:29:27;;;;;;;15.95;8.50;;;21.70;31.00;;;;;;4997006;28;20412;-72
2023/10/10 11:32:06;;;;;;;21.67;9.52;;;21.70;30.60;;;;;;5009287;28;20844;-71
2023/10/10 11:34:44;;;;;;;17.00;8.80;;;21.70;29.10;;;;;;5002681;28;20394;-71
2023/10/10 11:37:14;;;;;;;16.45;9.45;;;21.90;28.30;;;;;;5007851;28;20444;-71
2023/10/10 11:39:47;;;;;;;15.88;8.52;;;22.00;28.50;;;;;;4994419;28;20485;-72
2023/10/10 11:42:33;;;;;;;16.50;8.00;;;22.20;27.70;;;;;;4996167;28;20403;-72
2023/10/10 11:45:17;;;;;;;18.75;7.70;;;22.20;27.60;;;;;;5007251;28;20445;-72
2023/10/10 11:47:44;;;;;;;16.02;8.30;;;22.10;28.40;;;;;;5010332;28;20415;-73
2023/10/10 11:50:15;;;;;;;19.70;8.00;;;22.20;27.30;;;;;;5001701;28;20447;-74
2023/10/10 11:52:52;;;;;;;22.00;8.40;;;22.40;26.60;;;;;;5013145;28;20377;-73
2023/10/10 11:55:25;;;;;;;20.63;7.82;;;22.30;27.00;;;;;;5007109;28;20408;-74
2023/10/10 11:57:55;;;;;;;16.70;7.75;;;22.30;26.70;;;;;;5012212;28;20393;-77
2023/10/10 12:00:29;;;;;;;29.60;9.05;;;22.40;27.00;;;;;;5011918;28;20377;-77
2023/10/10 12:02:57;;;;;;;21.17;7.70;;;22.30;27.00;;;;;;5009450;28;20962;-76
2023/10/10 12:08:07;;;;;;;19.25;7.75;;;22.50;26.10;;;;;;5010905;28;20381;-72
2023/10/10 12:10:44;;;;;;;15.43;7.15;;;22.50;26.00;;;;;;4991385;28;20490;-74
2023/10/10 12:13:12;;;;;;;15.68;7.15;;;22.60;25.50;;;;;;4976445;28;20482;-73
2023/10/10 12:15:40;;;;;;;13.90;6.70;;;22.60;23.00;;;;;;5010270;28;20393;-72
2023/10/10 12:18:13;;;;;;;12.73;6.45;;;22.60;22.90;;;;;;5007939;28;20400;-72
2023/10/10 12:20:44;;;;;;;13.20;6.43;;;22.70;22.40;;;;;;5001923;28;20389;-72
2023/10/10 12:23:13;;;;;;;14.70;6.60;;;22.80;21.70;;;;;;5010718;28;20419;-72
2023/10/10 12:25:41;;;;;;;17.00;6.50;;;22.90;21.80;;;;;;4975239;28;20417;-71
2023/10/10 12:28:12;;;;;;;15.70;7.13;;;23.00;21.30;;;;;;4991527;28;20406;-73
2023/10/10 12:30:41;;;;;;;20.58;7.00;;;23.00;21.20;;;;;;4991285;28;20407;-72
2023/10/10 12:33:17;;;;;;;16.98;6.70;;;23.20;20.90;;;;;;4994422;28;20385;-74
2023/10/10 12:35:46;;;;;;;19.33;7.30;;;23.30;21.00;;;;;;5006240;28;20394;-73
2023/10/10 12:38:20;;;;;;;19.10;6.75;;;23.40;21.60;;;;;;5005686;28;20470;-72
2023/10/10 12:40:50;;;;;;;14.68;6.82;;;23.60;21.00;;;;;;5017705;28;20396;-72
2023/10/10 12:43:16;;;;;;;19.43;6.23;;;23.70;20.20;;;;;;4992376;28;20400;-72
2023/10/10 12:45:42;;;;;;;21.17;6.93;;;23.70;19.80;;;;;;4992584;28;20750;-71
2023/10/10 12:48:14;;;;;;;15.43;6.30;;;23.60;20.00;;;;;;4995297;28;20391;-73
2023/10/10 12:50:46;;;;;;;17.45;7.30;;;23.50;20.00;;;;;;4995088;28;20498;-72
2023/10/10 12:53:15;;;;;;;13.93;6.80;;;23.50;20.10;;;;;;4994709;28;20386;-71
2023/10/10 12:55:49;;;;;;;21.53;7.53;;;23.60;20.00;;;;;;4994970;28;20849;-72
2023/10/10 12:58:24;;;;;;;15.20;6.77;;;23.80;19.60;;;;;;4994977;28;20809;-72
2023/10/10 13:00:51;;;;;;;15.27;7.03;;;23.80;17.90;;;;;;5009881;28;20384;-74
2023/10/10 13:03:27;;;;;;;16.48;6.70;;;23.80;18.40;;;;;;5012083;28;20493;-72
2023/10/10 13:05:58;;;;;;;15.57;6.80;;;23.80;19.00;;;;;;5002986;28;20425;-73
2023/10/10 13:08:25;;;;;;;15.02;7.68;;;23.90;18.40;;;;;;5010981;28;20867;-73
2023/10/10 13:11:00;;;;;;;17.55;6.80;;;24.00;18.90;;;;;;5014312;28;20443;-73
2023/10/10 13:13:31;;;;;;;16.23;6.68;;;24.10;18.40;;;;;;5014102;28;20886;-73
2023/10/10 13:18:42;;;;;;;14.80;6.90;;;24.20;17.60;;;;;;5014226;28;20438;-73
2023/10/10 13:21:07;;;;;;;17.67;6.53;;;24.10;17.00;;;;;;5014173;28;20396;-72
2023/10/10 13:23:35;;;;;;;15.27;6.40;;;24.20;17.00;;;;;;5013657;28;20563;-73
2023/10/10 13:26:01;;;;;;;12.00;6.20;;;24.30;16.90;;;;;;5014401;28;20392;-72
2023/10/10 13:28:26;;;;;;;21.13;6.33;;;24.40;16.30;;;;;;5014083;28;20733;-73
2023/10/10 13:30:52;;;;;;;16.02;6.22;;;24.50;16.10;;;;;;5014584;28;20763;-71
2023/10/10 13:33:20;;;;;;;13.60;7.20;;;24.40;15.60;;;;;;4999121;28;20377;-72
2023/10/10 13:35:48;;;;;;;13.60;6.10;;;24.50;16.00;;;;;;5015396;28;20423;-73
2023/10/10 13:38:14;;;;;;;14.48;6.70;;;24.70;15.40;;;;;;5013936;28;20400;-72
2023/10/10 13:40:46;;;;;;;20.13;6.60;;;25.00;14.60;;;;;;5013855;28;20463;-72
2023/10/10 13:43:18;;;;;;;15.85;6.30;;;25.60;13.40;;;;;;5013372;28;20393;-73
2023/10/10 13:45:50;;;;;;;13.77;6.28;;;25.90;12.30;;;;;;5013280;28;20787;-74
2023/10/10 13:48:18;;;;;;;14.23;6.30;;;26.30;12.20;;;;;;5014122;28;20443;-72
2023/10/10 13:50:45;;;;;;;15.25;6.63;;;26.60;12.10;;;;;;5013727;28;20783;-71
2023/10/10 13:53:14;;;;;;;14.63;6.95;;;26.90;11.00;;;;;;5013281;28;20803;-72
2023/10/10 13:55:41;;;;;;;13.97;6.20;;;27.00;11.50;;;;;;5013324;28;20385;-73
2023/10/10 13:58:10;;;;;;;13.75;6.10;;;27.10;10.70;;;;;;5014243;28;20396;-73
2023/10/10 14:00:37;;;;;;;12.70;6.50;;;27.30;10.40;;;;;;5014306;28;20416;-73
2023/10/10 14:03:04;;;;;;;15.23;6.32;;;27.30;10.00;;;;;;5013086;28;20405;-73
2023/10/10 14:05:37;;;;;;;18.13;6.50;;;27.60;10.00;;;;;;5013388;28;20831;-73
2023/10/10 14:08:07;;;;;;;15.30;6.80;;;27.50;9.50;;;;;;4995727;28;20406;-71
2023/10/10 14:10:41;;;;;;;14.93;6.60;;;27.60;10.30;;;;;;5013292;28;20405;-72
2023/10/10 14:13:19;;;;;;;13.38;6.40;;;27.60;9.20;;;;;;5012990;28;20420;-73
2023/10/10 14:15:54;;;;;;;14.02;5.97;;;27.80;8.40;;;;;;5013191;28;20389;-73
2023/10/10 14:18:23;;;;;;;13.73;6.30;;;27.70;8.90;;;;;;5013554;28;20381;-73
2023/10/10 14:20:50;;;;;;;13.82;6.50;;;27.80;9.00;;;;;;5013027;28;20392;-72
2023/10/10 14:23:19;;;;;;;19.58;6.90;;;27.70;8.80;;;;;;5013003;28;20906;-72
2023/10/10 14:25:49;;;;;;;16.40;6.90;;;27.90;8.70;;;;;;5012794;28;20504;-73
2023/10/10 14:28:18;;;;;;;16.77;7.10;;;28.10;8.40;;;;;;5012748;28;20963;-73
2023/10/10 14:30:50;;;;;;;21.20;7.03;;;28.30;8.20;;;;;;5012412;28;20415;-74
2023/10/10 14:33:16;;;;;;;21.20;6.75;;;28.30;7.70;;;;;;5012574;28;20444;-73
2023/10/10 14:35:43;;;;;;;17.40;6.93;;;28.30;7.60;;;;;;5012666;28;20385;-73
2023/10/10 14:38:16;;;;;;;13.60;6.43;;;28.30;7.70;;;;;;5018357;28;20799;-71
2023/10/10 14:40:45;;;;;;;14.07;6.00;;;28.20;8.20;;;;;;5012477;28;20403;-71
2023/10/10 14:43:11;;;;;;;25.37;6.93;;;28.20;7.70;;;;;;4994387;28;20416;-72
2023/10/10 14:45:42;;;;;;;12.98;6.22;;;28.30;6.90;;;;;;5012603;28;20410;-73
2023/10/10 14:48:18;;;;;;;17.23;6.93;;;28.20;7.00;;;;;;5012947;28;20389;-72
2023/10/10 14:50:52;;;;;;;14.20;6.57;;;28.10;7.70;;;;;;5012623;28;20528;-72
2023/10/10 14:53:22;;;;;;;12.80;6.10;;;28.10;7.40;;;;;;5012151;28;20409;-72
2023/10/10 14:55:48;;;;;;;20.60;6.55;;;28.10;7.30;;;;;;4994527;28;20397;-71
2023/10/10 14:58:13;;;;;;;22.05;5.90;;;27.90;7.10;;;;;;5012478;28;20380;-72
2023/10/10 15:00:44;;;;;;;12.93;5.90;;;27.70;8.20;;;;;;5012495;28;20454;-73
2023/10/10 15:03:15;;;;;;;18.85;6.68;;;27.70;8.20;;;;;;5012533;28;20919;-72
2023/10/10 15:05:51;;;;;;;17.35;6.72;;;27.80;8.50;;;;;;5012215;28;20392;-73
2023/10/10 15:08:22;;;;;;;14.40;6.78;;;27.90;8.10;;;;;;5011810;28;20442;-73
2023/10/10 15:10:51;;;;;;;12.40;6.27;;;28.00;8.50;;;;;;5011407;28;20496;-74
2023/10/10 15:13:18;;;;;;;12.13;6.32;;;28.10;8.30;;;;;;5027530;23;20441;-78
2023/10/10 15:15:48;;;;;;;17.37;6.80;;;28.10;8.70;;;;;;5015499;28;20894;-78
2023/10/10 15:18:17;;;;;;;16.15;5.63;;;27.80;8.80;;;;;;5016988;28;20417;-78
2023/10/10 15:20:48;;;;;;;14.00;5.78;;;27.60;9.30;;;;;;5016921;28;20867;-78
2023/10/10 15:23:18;;;;;;;16.10;6.03;;;27.30;10.10;;;;;;5015428;28;20389;-77
2023/10/10 15:25:46;;;;;;;16.45;7.40;;;27.30;10.30;;;;;;5013977;28;20522;-77
2023/10/10 15:28:11;;;;;;;15.70;6.55;;;27.30;10.60;;;;;;5013618;28;20388;-76
2023/10/10 15:30:40;;;;;;;14.20;6.57;;;27.20;11.10;;;;;;4999041;28;20417;-77
2023/10/10 15:33:06;;;;;;;15.98;6.70;;;27.00;11.60;;;;;;5013901;28;20389;-77
2023/10/10 15:35:38;;;;;;;14.95;6.70;;;27.00;11.40;;;;;;5016495;28;20795;-77
2023/10/10 15:38:11;;;;;;;13.88;6.38;;;26.70;11.60;;;;;;5016584;28;20393;-77
2023/10/10 15:40:40;;;;;;;18.08;6.68;;;26.20;12.60;;;;;;4999457;28;20397;-77
2023/10/10 15:43:11;;;;;;;17.10;7.43;;;25.80;13.20;;;;;;5015682;28;20488;-77
2023/10/10 15:45:47;;;;;;;16.87;7.10;;;25.30;14.70;;;;;;5017253;28;20385;-77
2023/10/10 15:48:22;;;;;;;21.33;6.80;;;24.70;15.50;;;;;;5000362;28;20404;-76
2023/10/10 15:50:57;;;;;;;17.60;7.20;;;24.30;16.60;;;;;;5015075;28;20404;-77
2023/10/10 15:53:25;;;;;;;17.33;7.50;;;24.00;17.20;;;;;;5014837;28;20393;-77
2023/10/10 15:56:12;;;;;;;18.85;7.40;;;23.80;17.90;;;;;;5017316;28;20404;-76
2023/10/10 15:58:51;;;;;;;14.90;7.30;;;23.60;18.20;;;;;;5001490;28;20925;-78
2023/10/10 16:01:43;;;;;;;14.00;6.82;;;23.40;18.70;;;;;;5021846;28;20470;-76
2023/10/10 16:04:13;;;;;;;16.17;6.93;;;23.30;18.90;;;;;;5015511;28;20413;-76
2023/10/10 16:06:41;;;;;;;19.70;7.30;;;23.10;19.50;;;;;;5016731;28;20408;-77
2023/10/10 16:09:12;;;;;;;13.65;6.55;;;23.00;19.70;;;;;;5016352;28;20443;-77